sensor_id;sensor_type;location;lat;lon;timestamp;P1;durP1;ratioP1;P2;durP2;ratioP2
10041;SDS011;5061;49.068;12.058;2023-08-17T00:02:46;5.07;;;4.57;;
10041;SDS011;5061;49.068;12.058;2023-08-17T00:06:07;4.53;;;4.13;;
10041;SDS011;5061;49.068;12.058;2023-08-17T00:09:28;5.50;;;4.37;;
10041;SDS011;5061;49.068;12.058;2023-08-17T00:12:48;6.40;;;5.13;;
10041;SDS011;5061;49.068;12.058;2023-08-17T00:16:09;4.53;;;4.00;;
10041;SDS011;5061;49.068;12.058;2023-08-17T00:19:29;4.27;;;3.77;;
10041;SDS011;5061;49.068;12.058;2023-08-17T00:22:50;5.83;;;4.20;;
10041;SDS011;5061;49.068;12.058;2023-08-17T00:26:10;5.60;;;3.97;;
10041;SDS011;5061;49.068;12.058;2023-08-17T00:29:31;3.80;;;3.50;;
10041;SDS011;5061;49.068;12.058;2023-08-17T00:32:52;4.60;;;3.50;;
10041;SDS011;5061;49.068;12.058;2023-08-17T00:36:13;4.00;;;3.53;;
10041;SDS011;5061;49.068;12.058;2023-08-17T00:39:33;4.87;;;4.43;;
10041;SDS011;5061;49.068;12.058;2023-08-17T00:42:54;5.13;;;4.53;;
10041;SDS011;5061;49.068;12.058;2023-08-17T00:46:14;5.03;;;4.53;;
10041;SDS011;5061;49.068;12.058;2023-08-17T00:49:36;4.50;;;4.10;;
10041;SDS011;5061;49.068;12.058;2023-08-17T00:52:56;4.43;;;3.90;;
10041;SDS011;5061;49.068;12.058;2023-08-17T00:56:17;4.60;;;4.20;;
10041;SDS011;5061;49.068;12.058;2023-08-17T00:59:38;9.03;;;5.00;;
10041;SDS011;5061;49.068;12.058;2023-08-17T01:02:59;5.20;;;4.70;;
10041;SDS011;5061;49.068;12.058;2023-08-17T01:06:19;7.70;;;4.60;;
10041;SDS011;5061;49.068;12.058;2023-08-17T01:09:40;6.77;;;4.90;;
10041;SDS011;5061;49.068;12.058;2023-08-17T01:13:15;5.33;;;4.83;;
10041;SDS011;5061;49.068;12.058;2023-08-17T01:16:57;5.17;;;4.67;;
10041;SDS011;5061;49.068;12.058;2023-08-17T01:20:29;9.23;;;4.80;;
10041;SDS011;5061;49.068;12.058;2023-08-17T01:23:51;6.47;;;4.17;;
10041;SDS011;5061;49.068;12.058;2023-08-17T01:27:12;6.03;;;5.43;;
10041;SDS011;5061;49.068;12.058;2023-08-17T01:30:33;4.37;;;3.97;;
10041;SDS011;5061;49.068;12.058;2023-08-17T01:34:08;6.70;;;5.10;;
10041;SDS011;5061;49.068;12.058;2023-08-17T01:37:38;5.70;;;5.10;;
10041;SDS011;5061;49.068;12.058;2023-08-17T01:41:02;4.67;;;4.17;;
10041;SDS011;5061;49.068;12.058;2023-08-17T01:44:24;5.50;;;4.57;;
10041;SDS011;5061;49.068;12.058;2023-08-17T01:47:46;5.83;;;5.03;;
10041;SDS011;5061;49.068;12.058;2023-08-17T01:51:06;6.37;;;5.77;;
10041;SDS011;5061;49.068;12.058;2023-08-17T01:54:27;5.70;;;5.10;;
10041;SDS011;5061;49.068;12.058;2023-08-17T01:57:48;6.60;;;5.97;;
10041;SDS011;5061;49.068;12.058;2023-08-17T02:01:08;5.43;;;4.93;;
10041;SDS011;5061;49.068;12.058;2023-08-17T02:04:29;6.00;;;4.40;;
10041;SDS011;5061;49.068;12.058;2023-08-17T02:07:50;6.00;;;5.40;;
10041;SDS011;5061;49.068;12.058;2023-08-17T02:11:10;5.43;;;4.77;;
10041;SDS011;5061;49.068;12.058;2023-08-17T02:14:31;6.40;;;5.10;;
10041;SDS011;5061;49.068;12.058;2023-08-17T02:17:51;6.13;;;5.07;;
10041;SDS011;5061;49.068;12.058;2023-08-17T02:21:12;7.60;;;5.60;;
10041;SDS011;5061;49.068;12.058;2023-08-17T02:24:33;7.60;;;5.93;;
10041;SDS011;5061;49.068;12.058;2023-08-17T02:27:53;5.40;;;4.90;;
10041;SDS011;5061;49.068;12.058;2023-08-17T02:31:14;5.00;;;4.60;;
10041;SDS011;5061;49.068;12.058;2023-08-17T02:34:34;6.27;;;4.80;;
10041;SDS011;5061;49.068;12.058;2023-08-17T02:37:55;6.97;;;4.93;;
10041;SDS011;5061;49.068;12.058;2023-08-17T02:41:18;7.60;;;3.90;;
10041;SDS011;5061;49.068;12.058;2023-08-17T02:44:39;5.70;;;5.13;;
10041;SDS011;5061;49.068;12.058;2023-08-17T02:47:59;5.10;;;4.57;;
10041;SDS011;5061;49.068;12.058;2023-08-17T02:51:20;5.17;;;4.67;;
10041;SDS011;5061;49.068;12.058;2023-08-17T02:54:41;5.17;;;4.63;;
10041;SDS011;5061;49.068;12.058;2023-08-17T02:58:02;4.40;;;4.00;;
10041;SDS011;5061;49.068;12.058;2023-08-17T03:01:22;4.57;;;4.17;;
10041;SDS011;5061;49.068;12.058;2023-08-17T03:04:43;5.03;;;4.37;;
10041;SDS011;5061;49.068;12.058;2023-08-17T03:08:04;7.60;;;5.13;;
10041;SDS011;5061;49.068;12.058;2023-08-17T03:11:25;5.27;;;4.77;;
10041;SDS011;5061;49.068;12.058;2023-08-17T03:14:46;5.07;;;4.57;;
10041;SDS011;5061;49.068;12.058;2023-08-17T03:18:06;4.90;;;4.50;;
10041;SDS011;5061;49.068;12.058;2023-08-17T03:21:27;5.20;;;4.70;;
10041;SDS011;5061;49.068;12.058;2023-08-17T03:24:47;5.30;;;4.53;;
10041;SDS011;5061;49.068;12.058;2023-08-17T03:28:08;6.00;;;4.07;;
10041;SDS011;5061;49.068;12.058;2023-08-17T03:31:29;3.70;;;3.40;;
10041;SDS011;5061;49.068;12.058;2023-08-17T03:34:49;8.90;;;5.50;;
10041;SDS011;5061;49.068;12.058;2023-08-17T03:38:10;6.80;;;4.93;;
10041;SDS011;5061;49.068;12.058;2023-08-17T03:41:30;6.80;;;4.70;;
10041;SDS011;5061;49.068;12.058;2023-08-17T03:44:51;6.47;;;5.20;;
10041;SDS011;5061;49.068;12.058;2023-08-17T03:48:12;5.37;;;4.83;;
10041;SDS011;5061;49.068;12.058;2023-08-17T03:51:33;5.20;;;4.70;;
10041;SDS011;5061;49.068;12.058;2023-08-17T03:54:53;5.90;;;5.33;;
10041;SDS011;5061;49.068;12.058;2023-08-17T03:58:14;7.90;;;5.70;;
10041;SDS011;5061;49.068;12.058;2023-08-17T04:01:35;6.70;;;5.10;;
10041;SDS011;5061;49.068;12.058;2023-08-17T04:04:55;9.03;;;6.30;;
10041;SDS011;5061;49.068;12.058;2023-08-17T04:08:16;5.47;;;4.97;;
10041;SDS011;5061;49.068;12.058;2023-08-17T04:11:37;5.90;;;5.10;;
10041;SDS011;5061;49.068;12.058;2023-08-17T04:14:57;6.73;;;4.70;;
10041;SDS011;5061;49.068;12.058;2023-08-17T04:18:18;7.47;;;5.37;;
10041;SDS011;5061;49.068;12.058;2023-08-17T04:21:38;5.33;;;4.80;;
10041;SDS011;5061;49.068;12.058;2023-08-17T04:24:59;5.27;;;4.77;;
10041;SDS011;5061;49.068;12.058;2023-08-17T04:28:19;4.20;;;3.90;;
10041;SDS011;5061;49.068;12.058;2023-08-17T04:31:40;5.00;;;4.50;;
10041;SDS011;5061;49.068;12.058;2023-08-17T04:35:01;5.63;;;4.13;;
10041;SDS011;5061;49.068;12.058;2023-08-17T04:38:22;5.40;;;4.50;;
10041;SDS011;5061;49.068;12.058;2023-08-17T04:41:42;4.87;;;4.27;;
10041;SDS011;5061;49.068;12.058;2023-08-17T04:45:03;4.57;;;4.17;;
10041;SDS011;5061;49.068;12.058;2023-08-17T04:48:24;5.83;;;4.57;;
10041;SDS011;5061;49.068;12.058;2023-08-17T04:51:45;4.73;;;4.27;;
10041;SDS011;5061;49.068;12.058;2023-08-17T04:55:05;6.07;;;4.77;;
10041;SDS011;5061;49.068;12.058;2023-08-17T04:58:26;4.40;;;4.00;;
10041;SDS011;5061;49.068;12.058;2023-08-17T05:01:47;5.30;;;4.80;;
10041;SDS011;5061;49.068;12.058;2023-08-17T05:05:09;5.33;;;4.83;;
10041;SDS011;5061;49.068;12.058;2023-08-17T05:08:30;5.20;;;4.70;;
10041;SDS011;5061;49.068;12.058;2023-08-17T05:11:50;4.97;;;4.43;;
10041;SDS011;5061;49.068;12.058;2023-08-17T05:15:11;4.77;;;4.37;;
10041;SDS011;5061;49.068;12.058;2023-08-17T05:18:32;3.97;;;3.60;;
10041;SDS011;5061;49.068;12.058;2023-08-17T05:21:52;5.03;;;4.43;;
10041;SDS011;5061;49.068;12.058;2023-08-17T05:25:13;4.30;;;3.90;;
10041;SDS011;5061;49.068;12.058;2023-08-17T05:28:34;5.13;;;4.33;;
10041;SDS011;5061;49.068;12.058;2023-08-17T05:31:55;5.43;;;4.93;;
10041;SDS011;5061;49.068;12.058;2023-08-17T05:35:15;4.10;;;3.70;;
10041;SDS011;5061;49.068;12.058;2023-08-17T05:38:36;4.80;;;4.33;;
10041;SDS011;5061;49.068;12.058;2023-08-17T05:41:57;5.30;;;4.80;;
10041;SDS011;5061;49.068;12.058;2023-08-17T05:45:17;5.00;;;4.50;;
10041;SDS011;5061;49.068;12.058;2023-08-17T05:48:38;5.00;;;4.50;;
10041;SDS011;5061;49.068;12.058;2023-08-17T05:51:59;4.77;;;4.27;;
10041;SDS011;5061;49.068;12.058;2023-08-17T05:55:20;5.00;;;4.50;;
10041;SDS011;5061;49.068;12.058;2023-08-17T05:58:40;5.27;;;4.60;;
10041;SDS011;5061;49.068;12.058;2023-08-17T06:02:01;4.73;;;4.33;;
10041;SDS011;5061;49.068;12.058;2023-08-17T06:05:23;4.50;;;3.93;;
10041;SDS011;5061;49.068;12.058;2023-08-17T06:08:46;6.13;;;3.93;;
10041;SDS011;5061;49.068;12.058;2023-08-17T06:12:06;5.03;;;4.60;;
10041;SDS011;5061;49.068;12.058;2023-08-17T06:15:27;6.23;;;4.00;;
10041;SDS011;5061;49.068;12.058;2023-08-17T06:18:48;4.40;;;3.93;;
10041;SDS011;5061;49.068;12.058;2023-08-17T06:22:09;5.37;;;4.33;;
10041;SDS011;5061;49.068;12.058;2023-08-17T06:25:30;5.30;;;4.00;;
10041;SDS011;5061;49.068;12.058;2023-08-17T06:28:51;4.40;;;4.00;;
10041;SDS011;5061;49.068;12.058;2023-08-17T06:32:11;4.13;;;3.83;;
10041;SDS011;5061;49.068;12.058;2023-08-17T06:35:32;4.90;;;4.40;;
10041;SDS011;5061;49.068;12.058;2023-08-17T06:38:52;4.67;;;4.27;;
10041;SDS011;5061;49.068;12.058;2023-08-17T06:42:13;4.83;;;4.10;;
10041;SDS011;5061;49.068;12.058;2023-08-17T06:45:34;5.03;;;4.33;;
10041;SDS011;5061;49.068;12.058;2023-08-17T06:48:54;6.70;;;5.40;;
10041;SDS011;5061;49.068;12.058;2023-08-17T06:52:15;5.80;;;5.20;;
10041;SDS011;5061;49.068;12.058;2023-08-17T06:55:36;6.27;;;5.47;;
10041;SDS011;5061;49.068;12.058;2023-08-17T06:58:56;6.43;;;5.83;;
10041;SDS011;5061;49.068;12.058;2023-08-17T07:02:17;6.33;;;5.37;;
10041;SDS011;5061;49.068;12.058;2023-08-17T07:05:37;7.53;;;6.60;;
10041;SDS011;5061;49.068;12.058;2023-08-17T07:08:58;7.40;;;6.70;;
10041;SDS011;5061;49.068;12.058;2023-08-17T07:12:19;8.30;;;6.63;;
10041;SDS011;5061;49.068;12.058;2023-08-17T07:15:40;6.43;;;5.83;;
10041;SDS011;5061;49.068;12.058;2023-08-17T07:19:00;7.50;;;6.17;;
10041;SDS011;5061;49.068;12.058;2023-08-17T07:22:21;7.50;;;6.70;;
10041;SDS011;5061;49.068;12.058;2023-08-17T07:25:42;7.10;;;6.40;;
10041;SDS011;5061;49.068;12.058;2023-08-17T07:29:21;7.20;;;6.50;;
10041;SDS011;5061;49.068;12.058;2023-08-17T07:32:42;9.50;;;7.30;;
10041;SDS011;5061;49.068;12.058;2023-08-17T07:36:03;8.07;;;7.27;;
10041;SDS011;5061;49.068;12.058;2023-08-17T07:39:24;6.50;;;5.90;;
10041;SDS011;5061;49.068;12.058;2023-08-17T07:42:45;9.20;;;6.37;;
10041;SDS011;5061;49.068;12.058;2023-08-17T07:46:07;7.80;;;7.00;;
10041;SDS011;5061;49.068;12.058;2023-08-17T07:49:28;8.10;;;6.30;;
10041;SDS011;5061;49.068;12.058;2023-08-17T07:52:49;7.50;;;6.70;;
10041;SDS011;5061;49.068;12.058;2023-08-17T07:56:21;7.57;;;6.80;;
10041;SDS011;5061;49.068;12.058;2023-08-17T07:59:41;7.63;;;6.77;;
10041;SDS011;5061;49.068;12.058;2023-08-17T08:03:05;7.87;;;6.90;;
10041;SDS011;5061;49.068;12.058;2023-08-17T08:06:25;8.13;;;7.03;;
10041;SDS011;5061;49.068;12.058;2023-08-17T08:09:46;8.00;;;6.77;;
10041;SDS011;5061;49.068;12.058;2023-08-17T08:13:07;8.23;;;7.43;;
10041;SDS011;5061;49.068;12.058;2023-08-17T08:16:27;8.17;;;7.37;;
10041;SDS011;5061;49.068;12.058;2023-08-17T08:19:50;7.97;;;7.17;;
10041;SDS011;5061;49.068;12.058;2023-08-17T08:23:11;8.17;;;6.63;;
10041;SDS011;5061;49.068;12.058;2023-08-17T08:26:31;8.10;;;6.57;;
10041;SDS011;5061;49.068;12.058;2023-08-17T08:29:52;7.80;;;7.00;;
10041;SDS011;5061;49.068;12.058;2023-08-17T08:33:12;8.90;;;8.00;;
10041;SDS011;5061;49.068;12.058;2023-08-17T08:36:33;14.03;;;6.93;;
10041;SDS011;5061;49.068;12.058;2023-08-17T08:39:54;8.33;;;7.23;;
10041;SDS011;5061;49.068;12.058;2023-08-17T08:43:15;7.07;;;6.27;;
10041;SDS011;5061;49.068;12.058;2023-08-17T08:46:36;11.13;;;7.40;;
10041;SDS011;5061;49.068;12.058;2023-08-17T08:50:03;7.70;;;6.90;;
10041;SDS011;5061;49.068;12.058;2023-08-17T08:53:31;8.20;;;7.00;;
10041;SDS011;5061;49.068;12.058;2023-08-17T08:56:59;7.10;;;6.40;;
10041;SDS011;5061;49.068;12.058;2023-08-17T09:00:24;7.83;;;7.13;;
10041;SDS011;5061;49.068;12.058;2023-08-17T09:03:46;8.17;;;7.37;;
10041;SDS011;5061;49.068;12.058;2023-08-17T09:07:08;8.60;;;7.13;;
10041;SDS011;5061;49.068;12.058;2023-08-17T09:10:30;6.90;;;6.23;;
10041;SDS011;5061;49.068;12.058;2023-08-17T09:13:52;7.63;;;6.93;;
10041;SDS011;5061;49.068;12.058;2023-08-17T09:17:13;8.23;;;6.93;;
10041;SDS011;5061;49.068;12.058;2023-08-17T09:20:40;9.13;;;7.03;;
10041;SDS011;5061;49.068;12.058;2023-08-17T09:24:05;8.40;;;7.60;;
10041;SDS011;5061;49.068;12.058;2023-08-17T09:27:27;7.77;;;6.90;;
10041;SDS011;5061;49.068;12.058;2023-08-17T09:31:09;6.50;;;6.00;;
10041;SDS011;5061;49.068;12.058;2023-08-17T09:34:30;8.00;;;7.23;;
10041;SDS011;5061;49.068;12.058;2023-08-17T09:37:51;7.50;;;6.80;;
10041;SDS011;5061;49.068;12.058;2023-08-17T09:41:12;8.13;;;7.33;;
10041;SDS011;5061;49.068;12.058;2023-08-17T09:44:33;7.87;;;6.90;;
10041;SDS011;5061;49.068;12.058;2023-08-17T09:47:55;7.67;;;6.90;;
10041;SDS011;5061;49.068;12.058;2023-08-17T09:51:18;7.13;;;6.50;;
10041;SDS011;5061;49.068;12.058;2023-08-17T09:54:38;7.70;;;7.00;;
10041;SDS011;5061;49.068;12.058;2023-08-17T09:58:00;8.80;;;7.90;;
10041;SDS011;5061;49.068;12.058;2023-08-17T10:01:21;8.40;;;7.17;;
10041;SDS011;5061;49.068;12.058;2023-08-17T10:04:43;9.20;;;7.47;;
10041;SDS011;5061;49.068;12.058;2023-08-17T10:08:10;7.67;;;7.00;;
10041;SDS011;5061;49.068;12.058;2023-08-17T10:11:31;8.20;;;7.40;;
10041;SDS011;5061;49.068;12.058;2023-08-17T10:14:59;9.00;;;8.07;;
10041;SDS011;5061;49.068;12.058;2023-08-17T10:18:31;8.23;;;7.37;;
10041;SDS011;5061;49.068;12.058;2023-08-17T10:22:28;7.33;;;6.63;;
10041;SDS011;5061;49.068;12.058;2023-08-17T10:25:56;9.57;;;7.80;;
10041;SDS011;5061;49.068;12.058;2023-08-17T10:29:17;8.87;;;7.60;;
10041;SDS011;5061;49.068;12.058;2023-08-17T10:32:38;8.10;;;7.30;;
10041;SDS011;5061;49.068;12.058;2023-08-17T10:36:01;7.67;;;6.90;;
10041;SDS011;5061;49.068;12.058;2023-08-17T10:42:43;8.20;;;7.40;;
10041;SDS011;5061;49.068;12.058;2023-08-17T10:46:15;7.60;;;6.90;;
10041;SDS011;5061;49.068;12.058;2023-08-17T10:49:36;6.17;;;5.57;;
10041;SDS011;5061;49.068;12.058;2023-08-17T10:52:57;6.97;;;6.37;;
10041;SDS011;5061;49.068;12.058;2023-08-17T10:56:18;7.80;;;6.90;;
10041;SDS011;5061;49.068;12.058;2023-08-17T10:59:38;7.80;;;7.00;;
10041;SDS011;5061;49.068;12.058;2023-08-17T11:03:09;9.07;;;8.17;;
10041;SDS011;5061;49.068;12.058;2023-08-17T11:06:37;7.40;;;6.70;;
10041;SDS011;5061;49.068;12.058;2023-08-17T11:09:57;7.50;;;6.30;;
10041;SDS011;5061;49.068;12.058;2023-08-17T11:13:18;6.30;;;5.80;;
10041;SDS011;5061;49.068;12.058;2023-08-17T11:16:39;6.93;;;6.23;;
10041;SDS011;5061;49.068;12.058;2023-08-17T11:19:59;7.37;;;6.67;;
10041;SDS011;5061;49.068;12.058;2023-08-17T11:23:20;8.20;;;5.83;;
10041;SDS011;5061;49.068;12.058;2023-08-17T11:26:43;6.63;;;6.03;;
10041;SDS011;5061;49.068;12.058;2023-08-17T11:30:04;5.67;;;5.17;;
10041;SDS011;5061;49.068;12.058;2023-08-17T11:33:26;5.87;;;5.37;;
10041;SDS011;5061;49.068;12.058;2023-08-17T11:36:47;6.70;;;6.10;;
10041;SDS011;5061;49.068;12.058;2023-08-17T11:40:07;7.20;;;5.57;;
10041;SDS011;5061;49.068;12.058;2023-08-17T11:43:32;7.10;;;6.40;;
10041;SDS011;5061;49.068;12.058;2023-08-17T11:46:53;6.33;;;5.73;;
10041;SDS011;5061;49.068;12.058;2023-08-17T11:50:14;6.47;;;5.87;;
10041;SDS011;5061;49.068;12.058;2023-08-17T11:53:35;6.30;;;5.70;;
10041;SDS011;5061;49.068;12.058;2023-08-17T11:56:56;6.83;;;6.23;;
10041;SDS011;5061;49.068;12.058;2023-08-17T12:00:18;5.73;;;5.13;;
10041;SDS011;5061;49.068;12.058;2023-08-17T12:03:40;9.70;;;5.27;;
10041;SDS011;5061;49.068;12.058;2023-08-17T12:07:01;5.40;;;5.00;;
10041;SDS011;5061;49.068;12.058;2023-08-17T12:10:21;6.13;;;5.47;;
10041;SDS011;5061;49.068;12.058;2023-08-17T12:13:42;5.27;;;4.77;;
10041;SDS011;5061;49.068;12.058;2023-08-17T12:17:04;12.07;;;4.30;;
10041;SDS011;5061;49.068;12.058;2023-08-17T12:20:24;5.40;;;4.90;;
10041;SDS011;5061;49.068;12.058;2023-08-17T12:23:45;7.73;;;5.10;;
10041;SDS011;5061;49.068;12.058;2023-08-17T12:27:06;5.03;;;4.53;;
10041;SDS011;5061;49.068;12.058;2023-08-17T12:30:30;5.60;;;5.10;;
10041;SDS011;5061;49.068;12.058;2023-08-17T12:33:52;4.93;;;4.53;;
10041;SDS011;5061;49.068;12.058;2023-08-17T12:37:17;5.43;;;4.97;;
10041;SDS011;5061;49.068;12.058;2023-08-17T12:40:40;5.03;;;4.63;;
10041;SDS011;5061;49.068;12.058;2023-08-17T12:44:00;5.07;;;4.40;;
10041;SDS011;5061;49.068;12.058;2023-08-17T12:47:21;6.40;;;5.73;;
10041;SDS011;5061;49.068;12.058;2023-08-17T12:50:42;5.10;;;4.70;;
10041;SDS011;5061;49.068;12.058;2023-08-17T12:54:02;5.50;;;5.00;;
10041;SDS011;5061;49.068;12.058;2023-08-17T12:57:23;5.67;;;5.17;;
10041;SDS011;5061;49.068;12.058;2023-08-17T13:00:44;5.47;;;4.97;;
10041;SDS011;5061;49.068;12.058;2023-08-17T13:04:05;5.40;;;4.90;;
10041;SDS011;5061;49.068;12.058;2023-08-17T13:07:26;4.40;;;4.00;;
10041;SDS011;5061;49.068;12.058;2023-08-17T13:10:46;6.60;;;4.67;;
10041;SDS011;5061;49.068;12.058;2023-08-17T13:14:07;4.80;;;4.40;;
10041;SDS011;5061;49.068;12.058;2023-08-17T13:17:28;4.83;;;4.33;;
10041;SDS011;5061;49.068;12.058;2023-08-17T13:20:48;4.80;;;4.40;;
10041;SDS011;5061;49.068;12.058;2023-08-17T13:24:09;4.77;;;4.37;;
10041;SDS011;5061;49.068;12.058;2023-08-17T13:27:30;4.97;;;4.57;;
10041;SDS011;5061;49.068;12.058;2023-08-17T13:30:50;4.53;;;3.53;;
10041;SDS011;5061;49.068;12.058;2023-08-17T13:34:17;4.60;;;4.20;;
10041;SDS011;5061;49.068;12.058;2023-08-17T13:37:38;4.20;;;3.90;;
10041;SDS011;5061;49.068;12.058;2023-08-17T13:40:58;5.03;;;4.60;;
10041;SDS011;5061;49.068;12.058;2023-08-17T13:44:19;4.10;;;3.80;;
10041;SDS011;5061;49.068;12.058;2023-08-17T13:47:45;4.30;;;4.00;;
10041;SDS011;5061;49.068;12.058;2023-08-17T13:51:06;3.87;;;3.57;;
10041;SDS011;5061;49.068;12.058;2023-08-17T13:54:26;4.60;;;4.20;;
10041;SDS011;5061;49.068;12.058;2023-08-17T13:57:47;4.03;;;3.73;;
10041;SDS011;5061;49.068;12.058;2023-08-17T14:01:08;4.30;;;3.90;;
10041;SDS011;5061;49.068;12.058;2023-08-17T14:04:40;3.87;;;3.57;;
10041;SDS011;5061;49.068;12.058;2023-08-17T14:08:09;4.93;;;4.07;;
10041;SDS011;5061;49.068;12.058;2023-08-17T14:11:49;4.50;;;4.10;;
10041;SDS011;5061;49.068;12.058;2023-08-17T14:15:13;5.33;;;3.80;;
10041;SDS011;5061;49.068;12.058;2023-08-17T14:18:34;4.10;;;3.80;;
10041;SDS011;5061;49.068;12.058;2023-08-17T14:21:55;4.07;;;3.77;;
10041;SDS011;5061;49.068;12.058;2023-08-17T14:25:15;3.77;;;3.47;;
10041;SDS011;5061;49.068;12.058;2023-08-17T14:29:11;4.07;;;3.77;;
10041;SDS011;5061;49.068;12.058;2023-08-17T14:32:34;3.90;;;3.60;;
10041;SDS011;5061;49.068;12.058;2023-08-17T14:35:58;4.80;;;3.77;;
10041;SDS011;5061;49.068;12.058;2023-08-17T14:39:25;3.60;;;3.30;;
10041;SDS011;5061;49.068;12.058;2023-08-17T14:42:46;3.40;;;3.10;;
10041;SDS011;5061;49.068;12.058;2023-08-17T14:46:07;4.50;;;4.10;;
10041;SDS011;5061;49.068;12.058;2023-08-17T14:49:28;5.40;;;3.67;;
10041;SDS011;5061;49.068;12.058;2023-08-17T14:52:49;3.93;;;3.63;;
10041;SDS011;5061;49.068;12.058;2023-08-17T14:56:09;4.57;;;4.17;;
10041;SDS011;5061;49.068;12.058;2023-08-17T14:59:30;4.33;;;3.93;;
10041;SDS011;5061;49.068;12.058;2023-08-17T15:02:51;3.60;;;3.30;;
10041;SDS011;5061;49.068;12.058;2023-08-17T15:06:15;4.03;;;3.63;;
10041;SDS011;5061;49.068;12.058;2023-08-17T15:09:36;4.43;;;4.03;;
10041;SDS011;5061;49.068;12.058;2023-08-17T15:12:59;4.30;;;3.90;;
10041;SDS011;5061;49.068;12.058;2023-08-17T15:16:20;3.50;;;3.20;;
10041;SDS011;5061;49.068;12.058;2023-08-17T15:19:47;5.30;;;3.70;;
10041;SDS011;5061;49.068;12.058;2023-08-17T15:23:07;3.70;;;3.40;;
10041;SDS011;5061;49.068;12.058;2023-08-17T15:26:28;3.70;;;3.40;;
10041;SDS011;5061;49.068;12.058;2023-08-17T15:29:48;5.93;;;4.23;;
10041;SDS011;5061;49.068;12.058;2023-08-17T15:33:09;4.07;;;3.77;;
10041;SDS011;5061;49.068;12.058;2023-08-17T15:36:30;3.90;;;3.60;;
10041;SDS011;5061;49.068;12.058;2023-08-17T15:39:50;4.60;;;3.70;;
10041;SDS011;5061;49.068;12.058;2023-08-17T15:43:11;3.67;;;3.33;;
10041;SDS011;5061;49.068;12.058;2023-08-17T15:46:34;4.33;;;4.03;;
10041;SDS011;5061;49.068;12.058;2023-08-17T15:49:55;4.50;;;4.07;;
10041;SDS011;5061;49.068;12.058;2023-08-17T15:53:16;4.23;;;3.37;;
10041;SDS011;5061;49.068;12.058;2023-08-17T15:56:37;4.03;;;3.70;;
10041;SDS011;5061;49.068;12.058;2023-08-17T16:00:00;3.60;;;3.30;;
10041;SDS011;5061;49.068;12.058;2023-08-17T16:03:24;3.83;;;3.53;;
10041;SDS011;5061;49.068;12.058;2023-08-17T16:06:44;4.10;;;3.73;;
10041;SDS011;5061;49.068;12.058;2023-08-17T16:10:05;3.73;;;3.43;;
10041;SDS011;5061;49.068;12.058;2023-08-17T16:13:26;4.03;;;3.67;;
10041;SDS011;5061;49.068;12.058;2023-08-17T16:16:49;3.60;;;3.30;;
10041;SDS011;5061;49.068;12.058;2023-08-17T16:20:10;3.60;;;3.30;;
10041;SDS011;5061;49.068;12.058;2023-08-17T16:23:31;3.53;;;3.23;;
10041;SDS011;5061;49.068;12.058;2023-08-17T16:26:51;3.67;;;3.37;;
10041;SDS011;5061;49.068;12.058;2023-08-17T16:30:12;3.53;;;3.23;;
10041;SDS011;5061;49.068;12.058;2023-08-17T16:33:33;3.93;;;3.63;;
10041;SDS011;5061;49.068;12.058;2023-08-17T16:36:54;3.13;;;2.83;;
10041;SDS011;5061;49.068;12.058;2023-08-17T16:40:14;3.03;;;2.70;;
10041;SDS011;5061;49.068;12.058;2023-08-17T16:43:35;3.40;;;3.10;;
10041;SDS011;5061;49.068;12.058;2023-08-17T16:46:56;3.17;;;2.87;;
10041;SDS011;5061;49.068;12.058;2023-08-17T16:50:16;3.43;;;3.13;;
10041;SDS011;5061;49.068;12.058;2023-08-17T16:53:37;3.43;;;3.13;;
10041;SDS011;5061;49.068;12.058;2023-08-17T16:56:59;3.20;;;3.00;;
10041;SDS011;5061;49.068;12.058;2023-08-17T17:00:20;3.47;;;3.17;;
10041;SDS011;5061;49.068;12.058;2023-08-17T17:03:41;3.10;;;2.80;;
10041;SDS011;5061;49.068;12.058;2023-08-17T17:07:03;3.17;;;2.87;;
10041;SDS011;5061;49.068;12.058;2023-08-17T17:10:23;3.27;;;2.97;;
10041;SDS011;5061;49.068;12.058;2023-08-17T17:13:44;2.77;;;2.47;;
10041;SDS011;5061;49.068;12.058;2023-08-17T17:17:05;3.20;;;2.90;;
10041;SDS011;5061;49.068;12.058;2023-08-17T17:20:25;3.10;;;2.80;;
10041;SDS011;5061;49.068;12.058;2023-08-17T17:23:52;3.20;;;2.97;;
10041;SDS011;5061;49.068;12.058;2023-08-17T17:27:16;3.03;;;2.83;;
10041;SDS011;5061;49.068;12.058;2023-08-17T17:30:38;3.87;;;3.53;;
10041;SDS011;5061;49.068;12.058;2023-08-17T19:27:07;3.33;;;3.03;;
10041;SDS011;5061;49.068;12.058;2023-08-17T19:31:04;4.93;;;3.20;;
10041;SDS011;5061;49.068;12.058;2023-08-17T19:34:39;3.73;;;2.30;;
10041;SDS011;5061;49.068;12.058;2023-08-17T19:38:25;3.33;;;3.03;;
10041;SDS011;5061;49.068;12.058;2023-08-17T19:42:41;3.87;;;2.90;;
10041;SDS011;5061;49.068;12.058;2023-08-17T19:46:39;3.40;;;2.60;;
10041;SDS011;5061;49.068;12.058;2023-08-17T19:50:01;3.67;;;2.63;;
10041;SDS011;5061;49.068;12.058;2023-08-17T19:53:25;3.20;;;2.57;;
10041;SDS011;5061;49.068;12.058;2023-08-17T19:56:45;3.57;;;2.87;;
10041;SDS011;5061;49.068;12.058;2023-08-17T20:00:06;3.00;;;2.30;;
10041;SDS011;5061;49.068;12.058;2023-08-17T20:03:29;3.10;;;2.80;;
10041;SDS011;5061;49.068;12.058;2023-08-17T20:06:50;3.97;;;2.87;;
10041;SDS011;5061;49.068;12.058;2023-08-17T20:10:18;2.53;;;2.30;;
10041;SDS011;5061;49.068;12.058;2023-08-17T20:13:40;2.70;;;2.50;;
10041;SDS011;5061;49.068;12.058;2023-08-17T20:17:01;3.13;;;2.57;;
10041;SDS011;5061;49.068;12.058;2023-08-17T20:20:22;3.37;;;2.97;;
10041;SDS011;5061;49.068;12.058;2023-08-17T20:23:42;2.90;;;2.60;;
10041;SDS011;5061;49.068;12.058;2023-08-17T20:27:04;3.60;;;2.90;;
10041;SDS011;5061;49.068;12.058;2023-08-17T20:30:25;2.60;;;2.40;;
10041;SDS011;5061;49.068;12.058;2023-08-17T20:33:45;2.23;;;2.03;;
10041;SDS011;5061;49.068;12.058;2023-08-17T20:37:06;2.80;;;2.13;;
10041;SDS011;5061;49.068;12.058;2023-08-17T20:40:27;2.20;;;2.00;;
10041;SDS011;5061;49.068;12.058;2023-08-17T20:43:47;3.30;;;2.57;;
10041;SDS011;5061;49.068;12.058;2023-08-17T20:47:08;3.37;;;2.20;;
10041;SDS011;5061;49.068;12.058;2023-08-17T20:50:28;2.13;;;1.80;;
10041;SDS011;5061;49.068;12.058;2023-08-17T20:53:49;2.43;;;2.23;;
10041;SDS011;5061;49.068;12.058;2023-08-17T20:57:13;2.13;;;1.93;;
10041;SDS011;5061;49.068;12.058;2023-08-17T21:00:33;2.20;;;2.00;;
10041;SDS011;5061;49.068;12.058;2023-08-17T21:03:55;2.43;;;2.03;;
10041;SDS011;5061;49.068;12.058;2023-08-17T21:25:49;3.10;;;1.97;;
10041;SDS011;5061;49.068;12.058;2023-08-17T21:29:10;2.40;;;2.10;;
10041;SDS011;5061;49.068;12.058;2023-08-17T21:32:30;4.27;;;2.13;;
10041;SDS011;5061;49.068;12.058;2023-08-17T21:35:53;2.07;;;1.87;;
10041;SDS011;5061;49.068;12.058;2023-08-17T21:39:14;2.10;;;1.90;;
10041;SDS011;5061;49.068;12.058;2023-08-17T21:42:35;2.00;;;1.80;;
10041;SDS011;5061;49.068;12.058;2023-08-17T21:45:56;1.63;;;1.53;;
10041;SDS011;5061;49.068;12.058;2023-08-17T21:49:18;1.60;;;1.50;;
10041;SDS011;5061;49.068;12.058;2023-08-17T21:52:41;1.70;;;1.60;;
10041;SDS011;5061;49.068;12.058;2023-08-17T21:56:01;7.13;;;1.83;;
10041;SDS011;5061;49.068;12.058;2023-08-17T21:59:22;2.27;;;2.07;;
10041;SDS011;5061;49.068;12.058;2023-08-17T22:02:43;2.07;;;1.60;;
10041;SDS011;5061;49.068;12.058;2023-08-17T22:06:03;2.53;;;1.53;;
10041;SDS011;5061;49.068;12.058;2023-08-17T22:09:26;2.07;;;1.87;;
10041;SDS011;5061;49.068;12.058;2023-08-17T22:12:47;2.37;;;1.80;;
10041;SDS011;5061;49.068;12.058;2023-08-17T22:16:07;2.10;;;2.00;;
10041;SDS011;5061;49.068;12.058;2023-08-17T22:19:28;2.30;;;2.10;;
10041;SDS011;5061;49.068;12.058;2023-08-17T22:22:49;1.73;;;1.63;;
10041;SDS011;5061;49.068;12.058;2023-08-17T22:26:10;2.73;;;2.30;;
10041;SDS011;5061;49.068;12.058;2023-08-17T22:29:30;2.60;;;2.40;;
10041;SDS011;5061;49.068;12.058;2023-08-17T22:32:52;2.10;;;1.90;;
10041;SDS011;5061;49.068;12.058;2023-08-17T22:36:13;1.80;;;1.70;;